sensor_id;sensor_type;location;lat;lon;timestamp;P1;durP1;ratioP1;P2;durP2;ratioP2
18455;SDS011;9357;49.900;8.208;2022-08-19T00:00:46;20.30;;;18.13;;
18455;SDS011;9357;49.900;8.208;2022-08-19T00:02:19;20.20;;;18.10;;
18455;SDS011;9357;49.900;8.208;2022-08-19T00:03:52;21.27;;;19.00;;
18455;SDS011;9357;49.900;8.208;2022-08-19T00:05:25;19.97;;;17.93;;
18455;SDS011;9357;49.900;8.208;2022-08-19T00:06:58;19.27;;;17.37;;
18455;SDS011;9357;49.900;8.208;2022-08-19T00:08:31;19.10;;;17.20;;
18455;SDS011;9357;49.900;8.208;2022-08-19T00:10:05;19.27;;;17.23;;
18455;SDS011;9357;49.900;8.208;2022-08-19T00:11:40;20.70;;;18.50;;
18455;SDS011;9357;49.900;8.208;2022-08-19T00:13:13;18.30;;;16.50;;
18455;SDS011;9357;49.900;8.208;2022-08-19T00:14:48;20.27;;;18.17;;
18455;SDS011;9357;49.900;8.208;2022-08-19T00:16:20;18.47;;;16.57;;
18455;SDS011;9357;49.900;8.208;2022-08-19T00:17:57;19.50;;;17.40;;
18455;SDS011;9357;49.900;8.208;2022-08-19T00:19:30;18.97;;;17.07;;
18455;SDS011;9357;49.900;8.208;2022-08-19T00:21:03;18.80;;;16.83;;
18455;SDS011;9357;49.900;8.208;2022-08-19T00:22:39;18.50;;;16.43;;
18455;SDS011;9357;49.900;8.208;2022-08-19T00:24:13;19.20;;;17.40;;
18455;SDS011;9357;49.900;8.208;2022-08-19T00:25:47;17.80;;;16.03;;
18455;SDS011;9357;49.900;8.208;2022-08-19T00:27:19;19.30;;;17.40;;
18455;SDS011;9357;49.900;8.208;2022-08-19T00:28:56;19.47;;;17.40;;
18455;SDS011;9357;49.900;8.208;2022-08-19T00:30:30;17.27;;;15.67;;
18455;SDS011;9357;49.900;8.208;2022-08-19T00:32:22;18.43;;;16.43;;
18455;SDS011;9357;49.900;8.208;2022-08-19T00:33:57;18.43;;;16.43;;
18455;SDS011;9357;49.900;8.208;2022-08-19T00:35:30;19.30;;;17.40;;
18455;SDS011;9357;49.900;8.208;2022-08-19T00:37:03;19.10;;;17.20;;
18455;SDS011;9357;49.900;8.208;2022-08-19T00:38:38;17.97;;;16.27;;
18455;SDS011;9357;49.900;8.208;2022-08-19T00:40:13;19.40;;;17.50;;
18455;SDS011;9357;49.900;8.208;2022-08-19T00:41:50;19.53;;;17.53;;
18455;SDS011;9357;49.900;8.208;2022-08-19T00:43:23;19.27;;;17.30;;
18455;SDS011;9357;49.900;8.208;2022-08-19T00:44:57;18.63;;;16.73;;
18455;SDS011;9357;49.900;8.208;2022-08-19T00:46:33;20.00;;;17.57;;
18455;SDS011;9357;49.900;8.208;2022-08-19T00:48:08;20.43;;;18.33;;
18455;SDS011;9357;49.900;8.208;2022-08-19T00:49:46;19.50;;;17.40;;
18455;SDS011;9357;49.900;8.208;2022-08-19T00:51:22;21.77;;;19.23;;
18455;SDS011;9357;49.900;8.208;2022-08-19T00:52:57;20.97;;;18.77;;
18455;SDS011;9357;49.900;8.208;2022-08-19T00:54:31;20.33;;;18.23;;
18455;SDS011;9357;49.900;8.208;2022-08-19T00:56:04;21.80;;;19.47;;
18455;SDS011;9357;49.900;8.208;2022-08-19T00:57:38;21.43;;;19.33;;
18455;SDS011;9357;49.900;8.208;2022-08-19T00:59:15;21.90;;;19.60;;
18455;SDS011;9357;49.900;8.208;2022-08-19T01:01:09;20.17;;;18.07;;
18455;SDS011;9357;49.900;8.208;2022-08-19T01:02:44;20.53;;;18.37;;
18455;SDS011;9357;49.900;8.208;2022-08-19T01:04:17;20.87;;;18.30;;
18455;SDS011;9357;49.900;8.208;2022-08-19T01:05:50;22.73;;;20.30;;
18455;SDS011;9357;49.900;8.208;2022-08-19T01:07:26;21.43;;;19.27;;
18455;SDS011;9357;49.900;8.208;2022-08-19T01:09:04;21.73;;;19.43;;
18455;SDS011;9357;49.900;8.208;2022-08-19T01:10:44;21.70;;;19.40;;
18455;SDS011;9357;49.900;8.208;2022-08-19T01:12:19;21.50;;;19.20;;
18455;SDS011;9357;49.900;8.208;2022-08-19T01:13:53;22.40;;;19.77;;
18455;SDS011;9357;49.900;8.208;2022-08-19T01:15:27;22.17;;;19.80;;
18455;SDS011;9357;49.900;8.208;2022-08-19T01:17:02;20.70;;;18.60;;
18455;SDS011;9357;49.900;8.208;2022-08-19T01:18:38;20.40;;;18.23;;
18455;SDS011;9357;49.900;8.208;2022-08-19T01:20:14;20.87;;;18.73;;
18455;SDS011;9357;49.900;8.208;2022-08-19T01:21:51;20.27;;;18.17;;
18455;SDS011;9357;49.900;8.208;2022-08-19T01:23:29;21.73;;;18.63;;
18455;SDS011;9357;49.900;8.208;2022-08-19T01:25:13;20.60;;;18.27;;
18455;SDS011;9357;49.900;8.208;2022-08-19T01:26:47;20.90;;;18.70;;
18455;SDS011;9357;49.900;8.208;2022-08-19T01:28:21;19.40;;;17.50;;
18455;SDS011;9357;49.900;8.208;2022-08-19T01:30:12;22.50;;;19.67;;
18455;SDS011;9357;49.900;8.208;2022-08-19T01:31:47;19.00;;;17.00;;
18455;SDS011;9357;49.900;8.208;2022-08-19T01:33:24;21.13;;;18.97;;
18455;SDS011;9357;49.900;8.208;2022-08-19T01:34:57;22.67;;;19.33;;
18455;SDS011;9357;49.900;8.208;2022-08-19T01:36:34;21.30;;;19.17;;
18455;SDS011;9357;49.900;8.208;2022-08-19T01:38:10;22.70;;;20.30;;
18455;SDS011;9357;49.900;8.208;2022-08-19T01:39:53;22.00;;;19.70;;
18455;SDS011;9357;49.900;8.208;2022-08-19T01:41:26;22.27;;;19.87;;
18455;SDS011;9357;49.900;8.208;2022-08-19T01:42:59;20.23;;;18.23;;
18455;SDS011;9357;49.900;8.208;2022-08-19T01:44:33;21.67;;;19.20;;
18455;SDS011;9357;49.900;8.208;2022-08-19T01:46:07;23.10;;;20.57;;
18455;SDS011;9357;49.900;8.208;2022-08-19T01:47:40;24.43;;;21.90;;
18455;SDS011;9357;49.900;8.208;2022-08-19T01:49:12;24.40;;;21.57;;
18455;SDS011;9357;49.900;8.208;2022-08-19T01:50:45;24.97;;;22.27;;
18455;SDS011;9357;49.900;8.208;2022-08-19T01:52:18;23.40;;;20.07;;
18455;SDS011;9357;49.900;8.208;2022-08-19T01:53:51;22.60;;;20.30;;
18455;SDS011;9357;49.900;8.208;2022-08-19T01:55:25;21.60;;;19.40;;
18455;SDS011;9357;49.900;8.208;2022-08-19T01:56:59;21.03;;;18.87;;
18455;SDS011;9357;49.900;8.208;2022-08-19T01:58:38;21.43;;;18.93;;
18455;SDS011;9357;49.900;8.208;2022-08-19T02:00:18;23.63;;;20.00;;
18455;SDS011;9357;49.900;8.208;2022-08-19T02:01:51;21.47;;;19.20;;
18455;SDS011;9357;49.900;8.208;2022-08-19T02:03:24;20.90;;;18.70;;
18455;SDS011;9357;49.900;8.208;2022-08-19T02:04:57;22.73;;;20.40;;
18455;SDS011;9357;49.900;8.208;2022-08-19T02:06:30;19.83;;;17.73;;
18455;SDS011;9357;49.900;8.208;2022-08-19T02:08:04;21.13;;;19.03;;
18455;SDS011;9357;49.900;8.208;2022-08-19T02:09:37;20.57;;;18.47;;
18455;SDS011;9357;49.900;8.208;2022-08-19T02:11:17;22.63;;;20.23;;
18455;SDS011;9357;49.900;8.208;2022-08-19T02:12:51;21.93;;;19.53;;
18455;SDS011;9357;49.900;8.208;2022-08-19T02:14:25;21.77;;;19.53;;
18455;SDS011;9357;49.900;8.208;2022-08-19T02:15:58;21.50;;;19.30;;
18455;SDS011;9357;49.900;8.208;2022-08-19T02:17:34;22.47;;;20.17;;
18455;SDS011;9357;49.900;8.208;2022-08-19T02:19:07;23.30;;;19.73;;
18455;SDS011;9357;49.900;8.208;2022-08-19T02:20:41;22.60;;;20.03;;
18455;SDS011;9357;49.900;8.208;2022-08-19T02:22:16;20.97;;;18.87;;
18455;SDS011;9357;49.900;8.208;2022-08-19T02:23:49;22.97;;;20.43;;
18455;SDS011;9357;49.900;8.208;2022-08-19T02:25:22;21.33;;;19.13;;
18455;SDS011;9357;49.900;8.208;2022-08-19T02:26:56;20.87;;;18.67;;
18455;SDS011;9357;49.900;8.208;2022-08-19T02:28:29;21.43;;;19.17;;
18455;SDS011;9357;49.900;8.208;2022-08-19T02:30:04;21.43;;;19.00;;
18455;SDS011;9357;49.900;8.208;2022-08-19T02:31:37;21.47;;;19.27;;
18455;SDS011;9357;49.900;8.208;2022-08-19T02:33:10;18.63;;;16.73;;
18455;SDS011;9357;49.900;8.208;2022-08-19T02:34:42;21.00;;;18.90;;
18455;SDS011;9357;49.900;8.208;2022-08-19T02:36:16;21.47;;;19.27;;
18455;SDS011;9357;49.900;8.208;2022-08-19T02:37:51;18.83;;;17.03;;
18455;SDS011;9357;49.900;8.208;2022-08-19T02:39:41;18.63;;;16.73;;
18455;SDS011;9357;49.900;8.208;2022-08-19T02:41:15;19.43;;;17.57;;
18455;SDS011;9357;49.900;8.208;2022-08-19T02:42:51;20.33;;;18.23;;
18455;SDS011;9357;49.900;8.208;2022-08-19T02:44:24;18.00;;;16.10;;
18455;SDS011;9357;49.900;8.208;2022-08-19T02:46:01;20.17;;;17.00;;
18455;SDS011;9357;49.900;8.208;2022-08-19T02:47:42;18.17;;;16.37;;
18455;SDS011;9357;49.900;8.208;2022-08-19T02:49:15;19.43;;;17.30;;
18455;SDS011;9357;49.900;8.208;2022-08-19T02:50:49;18.73;;;16.20;;
18455;SDS011;9357;49.900;8.208;2022-08-19T02:52:25;19.07;;;17.17;;
18455;SDS011;9357;49.900;8.208;2022-08-19T02:53:59;17.63;;;15.83;;
18455;SDS011;9357;49.900;8.208;2022-08-19T02:55:32;19.93;;;17.93;;
18455;SDS011;9357;49.900;8.208;2022-08-19T02:57:16;17.90;;;16.10;;
18455;SDS011;9357;49.900;8.208;2022-08-19T02:58:50;18.77;;;16.83;;
18455;SDS011;9357;49.900;8.208;2022-08-19T03:00:23;18.50;;;16.70;;
18455;SDS011;9357;49.900;8.208;2022-08-19T03:01:55;17.37;;;15.63;;
18455;SDS011;9357;49.900;8.208;2022-08-19T03:03:28;17.37;;;15.57;;
18455;SDS011;9357;49.900;8.208;2022-08-19T03:05:02;18.10;;;16.17;;
18455;SDS011;9357;49.900;8.208;2022-08-19T03:06:35;16.83;;;15.13;;
18455;SDS011;9357;49.900;8.208;2022-08-19T03:08:09;17.97;;;16.27;;
18455;SDS011;9357;49.900;8.208;2022-08-19T03:09:44;18.57;;;16.67;;
18455;SDS011;9357;49.900;8.208;2022-08-19T03:11:18;19.40;;;17.50;;
18455;SDS011;9357;49.900;8.208;2022-08-19T03:12:52;18.97;;;17.10;;
18455;SDS011;9357;49.900;8.208;2022-08-19T03:14:26;17.00;;;15.30;;
18455;SDS011;9357;49.900;8.208;2022-08-19T03:15:58;17.67;;;15.97;;
18455;SDS011;9357;49.900;8.208;2022-08-19T03:17:30;16.90;;;15.30;;
18455;SDS011;9357;49.900;8.208;2022-08-19T03:19:03;19.03;;;17.00;;
18455;SDS011;9357;49.900;8.208;2022-08-19T03:20:39;19.53;;;17.63;;
18455;SDS011;9357;49.900;8.208;2022-08-19T03:22:14;19.60;;;17.60;;
18455;SDS011;9357;49.900;8.208;2022-08-19T03:23:47;18.83;;;16.73;;
18455;SDS011;9357;49.900;8.208;2022-08-19T03:25:20;18.70;;;16.83;;
18455;SDS011;9357;49.900;8.208;2022-08-19T03:26:53;18.47;;;16.67;;
18455;SDS011;9357;49.900;8.208;2022-08-19T03:28:28;18.77;;;16.57;;
18455;SDS011;9357;49.900;8.208;2022-08-19T03:30:02;18.43;;;16.47;;
18455;SDS011;9357;49.900;8.208;2022-08-19T03:31:42;16.40;;;14.77;;
18455;SDS011;9357;49.900;8.208;2022-08-19T03:33:23;18.53;;;16.10;;
18455;SDS011;9357;49.900;8.208;2022-08-19T03:34:59;18.07;;;15.17;;
18455;SDS011;9357;49.900;8.208;2022-08-19T03:36:31;17.23;;;15.43;;
18455;SDS011;9357;49.900;8.208;2022-08-19T03:38:05;18.20;;;16.30;;
18455;SDS011;9357;49.900;8.208;2022-08-19T03:39:37;17.30;;;15.33;;
18455;SDS011;9357;49.900;8.208;2022-08-19T03:41:12;16.77;;;15.07;;
18455;SDS011;9357;49.900;8.208;2022-08-19T03:42:46;17.10;;;15.20;;
18455;SDS011;9357;49.900;8.208;2022-08-19T03:44:20;15.63;;;14.00;;
18455;SDS011;9357;49.900;8.208;2022-08-19T03:46:00;16.23;;;14.73;;
18455;SDS011;9357;49.900;8.208;2022-08-19T03:47:35;16.47;;;14.87;;
18455;SDS011;9357;49.900;8.208;2022-08-19T03:49:08;17.03;;;15.33;;
18455;SDS011;9357;49.900;8.208;2022-08-19T03:50:44;18.63;;;16.73;;
18455;SDS011;9357;49.900;8.208;2022-08-19T03:52:17;19.00;;;17.00;;
18455;SDS011;9357;49.900;8.208;2022-08-19T03:53:50;18.57;;;16.53;;
18455;SDS011;9357;49.900;8.208;2022-08-19T03:55:24;15.53;;;13.93;;
18455;SDS011;9357;49.900;8.208;2022-08-19T03:56:57;18.27;;;16.43;;
18455;SDS011;9357;49.900;8.208;2022-08-19T03:58:29;16.97;;;15.27;;
18455;SDS011;9357;49.900;8.208;2022-08-19T04:00:03;21.90;;;17.83;;
18455;SDS011;9357;49.900;8.208;2022-08-19T04:01:45;17.80;;;16.10;;
18455;SDS011;9357;49.900;8.208;2022-08-19T04:03:18;16.63;;;15.03;;
18455;SDS011;9357;49.900;8.208;2022-08-19T04:04:52;17.07;;;15.27;;
18455;SDS011;9357;49.900;8.208;2022-08-19T04:06:27;19.73;;;17.80;;
18455;SDS011;9357;49.900;8.208;2022-08-19T04:08:03;18.07;;;16.27;;
18455;SDS011;9357;49.900;8.208;2022-08-19T04:09:42;18.63;;;16.90;;
18455;SDS011;9357;49.900;8.208;2022-08-19T04:11:16;18.67;;;16.87;;
18455;SDS011;9357;49.900;8.208;2022-08-19T04:12:52;19.83;;;17.93;;
18455;SDS011;9357;49.900;8.208;2022-08-19T04:14:25;20.33;;;17.63;;
18455;SDS011;9357;49.900;8.208;2022-08-19T04:16:01;19.57;;;17.57;;
18455;SDS011;9357;49.900;8.208;2022-08-19T04:17:35;19.47;;;17.37;;
18455;SDS011;9357;49.900;8.208;2022-08-19T04:19:08;19.07;;;17.17;;
18455;SDS011;9357;49.900;8.208;2022-08-19T04:20:41;19.23;;;17.23;;
18455;SDS011;9357;49.900;8.208;2022-08-19T04:22:15;19.37;;;17.47;;
18455;SDS011;9357;49.900;8.208;2022-08-19T04:23:49;18.63;;;16.33;;
18455;SDS011;9357;49.900;8.208;2022-08-19T04:25:26;18.80;;;16.83;;
18455;SDS011;9357;49.900;8.208;2022-08-19T04:26:59;18.53;;;16.73;;
18455;SDS011;9357;49.900;8.208;2022-08-19T04:28:32;18.87;;;17.07;;
18455;SDS011;9357;49.900;8.208;2022-08-19T04:30:07;19.10;;;17.30;;
18455;SDS011;9357;49.900;8.208;2022-08-19T04:31:41;19.30;;;17.27;;
18455;SDS011;9357;49.900;8.208;2022-08-19T04:33:18;18.97;;;17.00;;
18455;SDS011;9357;49.900;8.208;2022-08-19T04:34:58;19.10;;;17.20;;
18455;SDS011;9357;49.900;8.208;2022-08-19T04:36:48;18.47;;;16.67;;
18455;SDS011;9357;49.900;8.208;2022-08-19T04:38:22;19.13;;;17.23;;
18455;SDS011;9357;49.900;8.208;2022-08-19T04:39:55;18.33;;;16.53;;
18455;SDS011;9357;49.900;8.208;2022-08-19T04:41:45;19.20;;;17.30;;
18455;SDS011;9357;49.900;8.208;2022-08-19T04:43:37;18.93;;;17.17;;
18455;SDS011;9357;49.900;8.208;2022-08-19T04:45:11;18.70;;;16.90;;
18455;SDS011;9357;49.900;8.208;2022-08-19T04:46:48;19.17;;;17.33;;
18455;SDS011;9357;49.900;8.208;2022-08-19T04:48:23;21.17;;;19.07;;
18455;SDS011;9357;49.900;8.208;2022-08-19T04:49:58;19.70;;;17.77;;
18455;SDS011;9357;49.900;8.208;2022-08-19T04:51:31;18.83;;;16.93;;
18455;SDS011;9357;49.900;8.208;2022-08-19T04:53:05;19.93;;;18.00;;
18455;SDS011;9357;49.900;8.208;2022-08-19T04:54:37;21.20;;;19.17;;
18455;SDS011;9357;49.900;8.208;2022-08-19T04:56:12;19.97;;;17.83;;
18455;SDS011;9357;49.900;8.208;2022-08-19T04:57:45;22.03;;;19.73;;
18455;SDS011;9357;49.900;8.208;2022-08-19T04:59:18;22.70;;;20.40;;
18455;SDS011;9357;49.900;8.208;2022-08-19T05:00:53;19.80;;;17.90;;
18455;SDS011;9357;49.900;8.208;2022-08-19T05:02:26;21.40;;;19.23;;
18455;SDS011;9357;49.900;8.208;2022-08-19T05:04:02;19.30;;;17.40;;
18455;SDS011;9357;49.900;8.208;2022-08-19T05:05:38;21.30;;;19.13;;
18455;SDS011;9357;49.900;8.208;2022-08-19T05:07:15;18.73;;;16.60;;
18455;SDS011;9357;49.900;8.208;2022-08-19T05:08:48;21.20;;;18.93;;
18455;SDS011;9357;49.900;8.208;2022-08-19T05:10:21;16.57;;;15.03;;
18455;SDS011;9357;49.900;8.208;2022-08-19T05:11:53;21.80;;;19.50;;
18455;SDS011;9357;49.900;8.208;2022-08-19T05:13:26;18.27;;;16.47;;
18455;SDS011;9357;49.900;8.208;2022-08-19T05:14:59;19.93;;;17.97;;
18455;SDS011;9357;49.900;8.208;2022-08-19T05:16:32;20.57;;;18.43;;
18455;SDS011;9357;49.900;8.208;2022-08-19T05:18:06;22.50;;;20.20;;
18455;SDS011;9357;49.900;8.208;2022-08-19T05:19:57;19.30;;;17.33;;
18455;SDS011;9357;49.900;8.208;2022-08-19T05:21:47;21.17;;;18.80;;
18455;SDS011;9357;49.900;8.208;2022-08-19T05:23:38;19.77;;;17.47;;
18455;SDS011;9357;49.900;8.208;2022-08-19T05:25:14;18.63;;;16.63;;
18455;SDS011;9357;49.900;8.208;2022-08-19T05:26:50;17.83;;;16.13;;
18455;SDS011;9357;49.900;8.208;2022-08-19T05:28:24;18.20;;;16.40;;
18455;SDS011;9357;49.900;8.208;2022-08-19T05:29:57;19.93;;;17.90;;
18455;SDS011;9357;49.900;8.208;2022-08-19T05:31:31;19.37;;;17.53;;
18455;SDS011;9357;49.900;8.208;2022-08-19T05:33:04;20.83;;;17.50;;
18455;SDS011;9357;49.900;8.208;2022-08-19T05:34:37;20.00;;;17.97;;
18455;SDS011;9357;49.900;8.208;2022-08-19T05:36:11;20.30;;;18.20;;
18455;SDS011;9357;49.900;8.208;2022-08-19T05:37:45;20.90;;;18.90;;
18455;SDS011;9357;49.900;8.208;2022-08-19T05:39:19;19.77;;;17.83;;
18455;SDS011;9357;49.900;8.208;2022-08-19T05:40:52;22.17;;;19.87;;
18455;SDS011;9357;49.900;8.208;2022-08-19T05:42:25;19.70;;;17.87;;
18455;SDS011;9357;49.900;8.208;2022-08-19T05:43:58;22.07;;;19.87;;
18455;SDS011;9357;49.900;8.208;2022-08-19T05:45:40;23.43;;;21.03;;
18455;SDS011;9357;49.900;8.208;2022-08-19T05:47:13;21.83;;;19.73;;
18455;SDS011;9357;49.900;8.208;2022-08-19T05:48:47;19.80;;;17.90;;
18455;SDS011;9357;49.900;8.208;2022-08-19T05:50:25;22.13;;;19.20;;
18455;SDS011;9357;49.900;8.208;2022-08-19T05:51:59;21.83;;;19.63;;
18455;SDS011;9357;49.900;8.208;2022-08-19T05:53:35;24.27;;;21.07;;
18455;SDS011;9357;49.900;8.208;2022-08-19T05:55:09;20.07;;;18.07;;
18455;SDS011;9357;49.900;8.208;2022-08-19T05:56:42;21.00;;;18.47;;
18455;SDS011;9357;49.900;8.208;2022-08-19T05:58:14;22.50;;;20.10;;
18455;SDS011;9357;49.900;8.208;2022-08-19T05:59:53;21.90;;;19.60;;
18455;SDS011;9357;49.900;8.208;2022-08-19T06:01:29;21.63;;;18.50;;
18455;SDS011;9357;49.900;8.208;2022-08-19T06:03:01;18.73;;;16.93;;
18455;SDS011;9357;49.900;8.208;2022-08-19T06:04:42;20.40;;;18.30;;
18455;SDS011;9357;49.900;8.208;2022-08-19T06:06:15;23.17;;;19.67;;
18455;SDS011;9357;49.900;8.208;2022-08-19T06:07:50;20.63;;;18.40;;
18455;SDS011;9357;49.900;8.208;2022-08-19T06:09:23;21.67;;;19.50;;
18455;SDS011;9357;49.900;8.208;2022-08-19T06:10:56;20.63;;;18.43;;
18455;SDS011;9357;49.900;8.208;2022-08-19T06:12:29;19.40;;;17.60;;
18455;SDS011;9357;49.900;8.208;2022-08-19T06:14:04;20.77;;;18.60;;
18455;SDS011;9357;49.900;8.208;2022-08-19T06:15:46;21.40;;;19.20;;
18455;SDS011;9357;49.900;8.208;2022-08-19T06:17:19;19.10;;;17.17;;
18455;SDS011;9357;49.900;8.208;2022-08-19T06:18:59;19.73;;;17.73;;
18455;SDS011;9357;49.900;8.208;2022-08-19T06:20:33;20.03;;;18.10;;
18455;SDS011;9357;49.900;8.208;2022-08-19T06:22:26;17.20;;;15.40;;
18455;SDS011;9357;49.900;8.208;2022-08-19T06:24:01;19.77;;;17.80;;
18455;SDS011;9357;49.900;8.208;2022-08-19T06:25:35;17.27;;;15.57;;
18455;SDS011;9357;49.900;8.208;2022-08-19T06:27:08;19.77;;;17.77;;
18455;SDS011;9357;49.900;8.208;2022-08-19T06:28:41;17.40;;;15.80;;
18455;SDS011;9357;49.900;8.208;2022-08-19T06:30:17;17.90;;;16.10;;
18455;SDS011;9357;49.900;8.208;2022-08-19T06:31:52;18.27;;;16.43;;
18455;SDS011;9357;49.900;8.208;2022-08-19T06:33:27;18.97;;;16.90;;
18455;SDS011;9357;49.900;8.208;2022-08-19T06:35:00;17.97;;;16.00;;
18455;SDS011;9357;49.900;8.208;2022-08-19T06:36:34;18.53;;;16.57;;
18455;SDS011;9357;49.900;8.208;2022-08-19T06:38:08;21.47;;;17.43;;
18455;SDS011;9357;49.900;8.208;2022-08-19T06:39:43;17.80;;;16.07;;
18455;SDS011;9357;49.900;8.208;2022-08-19T06:41:16;14.83;;;13.33;;
18455;SDS011;9357;49.900;8.208;2022-08-19T06:42:48;17.33;;;15.53;;
18455;SDS011;9357;49.900;8.208;2022-08-19T06:44:27;17.27;;;15.53;;
18455;SDS011;9357;49.900;8.208;2022-08-19T06:46:02;18.40;;;16.63;;
18455;SDS011;9357;49.900;8.208;2022-08-19T06:47:36;17.77;;;15.97;;
18455;SDS011;9357;49.900;8.208;2022-08-19T06:49:09;17.10;;;15.00;;
18455;SDS011;9357;49.900;8.208;2022-08-19T06:50:45;17.67;;;15.90;;
18455;SDS011;9357;49.900;8.208;2022-08-19T06:52:20;16.87;;;15.07;;
18455;SDS011;9357;49.900;8.208;2022-08-19T06:53:55;16.93;;;14.37;;
18455;SDS011;9357;49.900;8.208;2022-08-19T06:55:29;19.27;;;17.27;;
18455;SDS011;9357;49.900;8.208;2022-08-19T06:57:03;15.63;;;13.97;;
18455;SDS011;9357;49.900;8.208;2022-08-19T06:58:37;15.90;;;14.23;;
18455;SDS011;9357;49.900;8.208;2022-08-19T07:00:10;15.13;;;13.77;;
18455;SDS011;9357;49.900;8.208;2022-08-19T07:01:45;15.87;;;14.27;;
18455;SDS011;9357;49.900;8.208;2022-08-19T07:03:20;16.33;;;14.73;;
18455;SDS011;9357;49.900;8.208;2022-08-19T07:04:52;15.17;;;13.57;;
18455;SDS011;9357;49.900;8.208;2022-08-19T07:06:27;16.23;;;13.73;;
18455;SDS011;9357;49.900;8.208;2022-08-19T07:08:14;13.70;;;12.33;;
18455;SDS011;9357;49.900;8.208;2022-08-19T07:09:49;11.83;;;10.70;;
18455;SDS011;9357;49.900;8.208;2022-08-19T07:11:33;13.60;;;12.27;;
18455;SDS011;9357;49.900;8.208;2022-08-19T07:13:06;14.27;;;12.73;;
18455;SDS011;9357;49.900;8.208;2022-08-19T07:14:39;16.30;;;13.40;;
18455;SDS011;9357;49.900;8.208;2022-08-19T07:16:13;12.57;;;11.40;;
18455;SDS011;9357;49.900;8.208;2022-08-19T07:17:51;13.70;;;12.30;;
18455;SDS011;9357;49.900;8.208;2022-08-19T07:19:26;12.80;;;11.50;;
18455;SDS011;9357;49.900;8.208;2022-08-19T07:21:03;13.40;;;11.93;;
18455;SDS011;9357;49.900;8.208;2022-08-19T07:22:39;13.77;;;12.07;;
18455;SDS011;9357;49.900;8.208;2022-08-19T07:24:12;12.80;;;11.33;;
18455;SDS011;9357;49.900;8.208;2022-08-19T07:25:46;11.13;;;10.03;;
18455;SDS011;9357;49.900;8.208;2022-08-19T07:27:24;12.17;;;11.03;;
18455;SDS011;9357;49.900;8.208;2022-08-19T07:28:58;12.70;;;11.50;;
18455;SDS011;9357;49.900;8.208;2022-08-19T07:30:30;12.67;;;11.47;;
18455;SDS011;9357;49.900;8.208;2022-08-19T07:32:05;10.87;;;9.87;;
18455;SDS011;9357;49.900;8.208;2022-08-19T07:33:43;11.30;;;10.23;;
18455;SDS011;9357;49.900;8.208;2022-08-19T07:35:17;12.53;;;10.97;;
18455;SDS011;9357;49.900;8.208;2022-08-19T07:36:51;12.20;;;10.93;;
18455;SDS011;9357;49.900;8.208;2022-08-19T07:38:25;9.93;;;9.03;;
18455;SDS011;9357;49.900;8.208;2022-08-19T07:39:57;10.53;;;9.53;;
18455;SDS011;9357;49.900;8.208;2022-08-19T07:41:30;12.10;;;9.83;;
18455;SDS011;9357;49.900;8.208;2022-08-19T07:43:04;10.83;;;9.83;;
18455;SDS011;9357;49.900;8.208;2022-08-19T07:44:43;11.70;;;10.60;;
18455;SDS011;9357;49.900;8.208;2022-08-19T07:46:20;12.00;;;10.73;;
18455;SDS011;9357;49.900;8.208;2022-08-19T07:47:53;13.47;;;12.13;;
18455;SDS011;9357;49.900;8.208;2022-08-19T07:49:26;11.83;;;10.63;;
18455;SDS011;9357;49.900;8.208;2022-08-19T07:51:00;11.27;;;10.27;;
18455;SDS011;9357;49.900;8.208;2022-08-19T07:52:36;10.37;;;9.07;;
18455;SDS011;9357;49.900;8.208;2022-08-19T07:54:10;12.23;;;11.10;;
18455;SDS011;9357;49.900;8.208;2022-08-19T07:55:43;11.33;;;10.33;;
18455;SDS011;9357;49.900;8.208;2022-08-19T07:57:16;13.37;;;12.07;;
18455;SDS011;9357;49.900;8.208;2022-08-19T07:58:51;9.53;;;8.10;;
18455;SDS011;9357;49.900;8.208;2022-08-19T08:00:29;11.93;;;10.83;;
18455;SDS011;9357;49.900;8.208;2022-08-19T08:02:03;10.30;;;9.33;;
18455;SDS011;9357;49.900;8.208;2022-08-19T08:03:37;10.00;;;9.00;;
18455;SDS011;9357;49.900;8.208;2022-08-19T08:05:42;10.30;;;9.20;;
18455;SDS011;9357;49.900;8.208;2022-08-19T08:07:32;12.77;;;11.50;;
18455;SDS011;9357;49.900;8.208;2022-08-19T08:09:26;10.73;;;9.63;;
18455;SDS011;9357;49.900;8.208;2022-08-19T08:11:01;13.53;;;12.23;;
18455;SDS011;9357;49.900;8.208;2022-08-19T08:12:38;11.60;;;10.40;;
18455;SDS011;9357;49.900;8.208;2022-08-19T08:14:14;11.73;;;10.60;;
18455;SDS011;9357;49.900;8.208;2022-08-19T08:16:05;14.30;;;12.80;;
18455;SDS011;9357;49.900;8.208;2022-08-19T08:17:44;10.87;;;9.73;;
18455;SDS011;9357;49.900;8.208;2022-08-19T08:19:22;12.73;;;11.10;;
18455;SDS011;9357;49.900;8.208;2022-08-19T08:20:56;11.80;;;10.70;;
18455;SDS011;9357;49.900;8.208;2022-08-19T08:22:30;12.43;;;11.23;;
18455;SDS011;9357;49.900;8.208;2022-08-19T08:24:20;11.90;;;10.80;;
18455;SDS011;9357;49.900;8.208;2022-08-19T08:25:58;11.80;;;10.70;;
18455;SDS011;9357;49.900;8.208;2022-08-19T08:27:35;12.17;;;11.17;;
18455;SDS011;9357;49.900;8.208;2022-08-19T08:29:09;13.90;;;12.67;;
18455;SDS011;9357;49.900;8.208;2022-08-19T08:30:46;12.87;;;11.77;;
18455;SDS011;9357;49.900;8.208;2022-08-19T08:32:21;14.23;;;12.67;;
18455;SDS011;9357;49.900;8.208;2022-08-19T08:33:55;13.83;;;12.37;;
18455;SDS011;9357;49.900;8.208;2022-08-19T08:35:28;12.13;;;10.87;;
18455;SDS011;9357;49.900;8.208;2022-08-19T08:37:01;12.73;;;11.57;;
18455;SDS011;9357;49.900;8.208;2022-08-19T08:38:34;11.67;;;10.57;;
18455;SDS011;9357;49.900;8.208;2022-08-19T08:40:14;11.60;;;10.53;;
18455;SDS011;9357;49.900;8.208;2022-08-19T08:41:53;13.90;;;12.60;;
18455;SDS011;9357;49.900;8.208;2022-08-19T08:43:40;14.13;;;12.93;;
18455;SDS011;9357;49.900;8.208;2022-08-19T08:45:16;13.60;;;12.37;;
18455;SDS011;9357;49.900;8.208;2022-08-19T08:46:52;14.33;;;12.93;;
18455;SDS011;9357;49.900;8.208;2022-08-19T08:48:33;11.80;;;10.80;;
18455;SDS011;9357;49.900;8.208;2022-08-19T08:50:12;14.13;;;12.83;;
18455;SDS011;9357;49.900;8.208;2022-08-19T08:51:51;12.63;;;11.43;;
18455;SDS011;9357;49.900;8.208;2022-08-19T08:53:30;12.37;;;11.27;;
18455;SDS011;9357;49.900;8.208;2022-08-19T08:55:12;14.00;;;12.63;;
18455;SDS011;9357;49.900;8.208;2022-08-19T08:56:50;12.10;;;10.80;;
18455;SDS011;9357;49.900;8.208;2022-08-19T08:58:27;13.03;;;11.87;;
18455;SDS011;9357;49.900;8.208;2022-08-19T09:00:05;13.83;;;12.57;;
18455;SDS011;9357;49.900;8.208;2022-08-19T09:01:46;13.90;;;12.47;;
18455;SDS011;9357;49.900;8.208;2022-08-19T09:03:21;13.77;;;12.47;;
18455;SDS011;9357;49.900;8.208;2022-08-19T09:04:56;14.50;;;13.10;;
18455;SDS011;9357;49.900;8.208;2022-08-19T09:06:35;12.77;;;11.47;;
18455;SDS011;9357;49.900;8.208;2022-08-19T09:08:13;11.73;;;10.60;;
18455;SDS011;9357;49.900;8.208;2022-08-19T09:09:57;11.00;;;10.00;;
18455;SDS011;9357;49.900;8.208;2022-08-19T09:11:44;11.53;;;10.50;;
18455;SDS011;9357;49.900;8.208;2022-08-19T09:13:26;11.53;;;10.30;;
18455;SDS011;9357;49.900;8.208;2022-08-19T09:15:08;13.00;;;11.90;;
18455;SDS011;9357;49.900;8.208;2022-08-19T09:16:43;13.40;;;12.20;;
18455;SDS011;9357;49.900;8.208;2022-08-19T09:18:16;12.20;;;10.97;;
18455;SDS011;9357;49.900;8.208;2022-08-19T09:19:52;14.07;;;12.93;;
18455;SDS011;9357;49.900;8.208;2022-08-19T09:21:26;11.50;;;10.50;;
18455;SDS011;9357;49.900;8.208;2022-08-19T09:23:04;10.80;;;9.70;;
18455;SDS011;9357;49.900;8.208;2022-08-19T09:24:37;12.40;;;11.20;;
18455;SDS011;9357;49.900;8.208;2022-08-19T09:26:11;10.50;;;9.40;;
18455;SDS011;9357;49.900;8.208;2022-08-19T09:27:47;9.53;;;8.73;;
18455;SDS011;9357;49.900;8.208;2022-08-19T09:29:21;11.83;;;9.63;;